Time;durP1;ratioP1;P1;durP2;ratioP2;P2;SDS_P1;SDS_P2;PMS_P1;PMS_P2;Temp;Humidity;BMP_temperature;BMP_pressure;BME280_temperature;BME280_humidity;BME280_pressure;Samples;Min_cycle;Max_cycle;Signal;HPM_P1;HPM_P2
2023/01/02 00:01:20;;;;;;;;;3.67;2.67;;;;;15.24;68.69;100601.19;5017247;28;45371;-67
2023/01/02 00:03:45;;;;;;;;;6.67;4.00;;;;;15.25;68.46;100613.59;5016922;28;45321;-68
2023/01/02 00:06:11;;;;;;;;;2.00;2.00;;;;;15.23;68.95;100607.47;5016985;28;45341;-69
2023/01/02 00:08:36;;;;;;;;;1.00;1.00;;;;;15.18;69.20;100623.06;5016885;28;45399;-69
2023/01/02 00:11:01;;;;;;;;;6.67;4.00;;;;;15.18;69.27;100620.38;5018364;28;45810;-68
2023/01/02 00:13:30;;;;;;;;;5.00;2.00;;;;;15.16;69.38;100649.09;5018575;28;45418;-69
2023/01/02 00:15:55;;;;;;;;;2.67;2.67;;;;;15.12;69.38;100633.38;5036718;28;45389;-69
2023/01/02 00:18:20;;;;;;;;;8.00;4.00;;;;;15.08;69.21;100631.88;5036907;28;45266;-70
2023/01/02 00:20:46;;;;;;;;;4.67;4.00;;;;;15.05;69.76;100631.13;5018518;28;45451;-70
2023/01/02 00:23:11;;;;;;;;;3.67;3.67;;;;;15.01;69.70;100645.75;5036680;28;45403;-70
2023/01/02 00:25:37;;;;;;;;;4.33;3.33;;;;;15.03;70.03;100640.25;5036790;28;45305;-65
2023/01/02 00:28:02;;;;;;;;;2.67;2.67;;;;;14.99;70.59;100641.47;5037005;28;45323;-69
2023/01/02 00:30:28;;;;;;;;;5.33;4.00;;;;;14.97;70.78;100651.41;5018764;28;45698;-68
2023/01/02 00:32:53;;;;;;;;;2.00;2.00;;;;;14.95;70.46;100634.59;5036779;28;45297;-69
2023/01/02 00:35:19;;;;;;;;;2.00;2.00;;;;;14.93;71.41;100641.91;5036677;28;45747;-69
2023/01/02 00:37:44;;;;;;;;;2.00;2.00;;;;;14.90;71.23;100652.84;5036506;28;45905;-67
2023/01/02 00:40:14;;;;;;;;;2.00;2.00;;;;;14.87;71.39;100645.03;5036099;28;45234;-71
2023/01/02 00:42:40;;;;;;;;;1.67;1.67;;;;;14.82;71.88;100641.81;5036092;28;45379;-70
2023/01/02 00:45:07;;;;;;;;;1.00;1.00;;;;;14.74;72.48;100647.75;5036261;28;45425;-68
2023/01/02 00:47:32;;;;;;;;;3.00;3.00;;;;;14.76;72.36;100645.81;5018432;28;45329;-68
2023/01/02 00:49:58;;;;;;;;;3.00;2.67;;;;;14.66;72.52;100650.97;5036118;28;45438;-67
2023/01/02 00:52:23;;;;;;;;;2.00;2.00;;;;;14.66;72.57;100645.63;5036473;28;45233;-72
2023/01/02 00:54:48;;;;;;;;;3.00;0.00;;;;;14.57;74.11;100651.63;5018624;28;45243;-69
2023/01/02 00:57:14;;;;;;;;;4.00;2.33;;;;;14.58;73.67;100647.13;5018444;28;45564;-66
2023/01/02 00:59:39;;;;;;;;;2.33;2.00;;;;;14.54;73.63;100651.84;5035849;28;46584;-70
2023/01/02 01:02:04;;;;;;;;;2.00;2.00;;;;;14.50;73.88;100637.00;5017879;28;45367;-70
2023/01/02 01:04:34;;;;;;;;;2.67;2.00;;;;;14.50;74.43;100649.50;5018276;28;45252;-70
2023/01/02 01:07:00;;;;;;;;;2.00;2.00;;;;;14.33;74.71;100637.31;5036023;28;45349;-70
2023/01/02 01:09:25;;;;;;;;;5.00;3.00;;;;;14.40;74.19;100655.47;5035985;28;46247;-67
2023/01/02 01:11:51;;;;;;;;;2.33;1.00;;;;;14.34;74.71;100649.72;5027366;28;45446;-69
2023/01/02 01:14:16;;;;;;;;;3.33;3.33;;;;;14.33;75.78;100640.00;5015957;28;45334;-68
2023/01/02 01:16:41;;;;;;;;;4.67;3.00;;;;;14.35;75.22;100659.47;5016264;28;45372;-71
2023/01/02 01:19:07;;;;;;;;;3.00;3.00;;;;;14.25;75.46;100634.31;4997148;28;46407;-68
2023/01/02 01:21:32;;;;;;;;;1.00;1.00;;;;;14.23;75.62;100641.59;5015556;28;45401;-69
2023/01/02 01:23:57;;;;;;;;;7.33;3.00;;;;;14.28;74.48;100655.50;5016045;28;45403;-68
2023/01/02 01:26:23;;;;;;;;;1.67;1.67;;;;;14.24;75.59;100670.06;5016368;28;45366;-68
2023/01/02 01:28:52;;;;;;;;;3.33;2.00;;;;;14.23;76.23;100679.03;5015642;28;46041;-66
2023/01/02 01:31:17;;;;;;;;;3.00;3.00;;;;;14.14;76.96;100673.38;4985087;28;45781;-67
2023/01/02 01:33:44;;;;;;;;;1.33;1.33;;;;;14.16;76.11;100668.75;5019355;28;45344;-65
2023/01/02 01:36:14;;;;;;;;;4.33;3.00;;;;;14.16;76.75;100674.09;5019526;28;45340;-66
2023/01/02 01:38:40;;;;;;;;;2.33;2.33;;;;;14.15;77.27;100677.75;5019008;28;46551;-65
2023/01/02 01:41:06;;;;;;;;;2.00;1.00;;;;;14.05;77.24;100655.28;5019183;28;45293;-67
2023/01/02 01:43:36;;;;;;;;;3.00;3.00;;;;;14.09;77.43;100667.50;5019459;28;45182;-67
2023/01/02 01:46:02;;;;;;;;;4.67;3.00;;;;;14.05;77.35;100660.63;5001605;28;45599;-66
2023/01/02 01:48:28;;;;;;;;;1.67;1.67;;;;;14.04;78.22;100666.94;5019341;28;45440;-66
2023/01/02 01:50:54;;;;;;;;;5.00;2.00;;;;;14.00;77.48;100668.13;5001230;28;45361;-67
2023/01/02 01:53:21;;;;;;;;;2.00;2.00;;;;;13.97;77.74;100671.00;5019128;28;45381;-66
2023/01/02 01:55:53;;;;;;;;;2.33;2.33;;;;;14.01;78.01;100680.53;5019301;28;45566;-68
2023/01/02 01:58:26;;;;;;;;;1.33;1.33;;;;;14.01;77.88;100680.53;5018772;28;46082;-70
2023/01/02 02:00:52;;;;;;;;;1.00;1.00;;;;;14.04;77.52;100693.69;5018349;28;45470;-69
2023/01/02 02:03:21;;;;;;;;;1.67;1.67;;;;;14.01;77.22;100699.25;5018712;28;45447;-67
2023/01/02 02:05:49;;;;;;;;;2.00;2.00;;;;;13.98;77.89;100712.81;5001347;28;45246;-68
2023/01/02 02:08:19;;;;;;;;;1.00;1.00;;;;;13.91;77.55;100703.50;5000938;28;46116;-67
2023/01/02 02:10:45;;;;;;;;;4.00;2.00;;;;;13.96;78.21;100716.56;5018714;28;45225;-70
2023/01/02 02:13:11;;;;;;;;;2.00;1.00;;;;;13.89;77.30;100718.78;5037823;28;45235;-71
2023/01/02 02:15:52;;;;;;;;;1.00;1.00;;;;;13.94;77.79;100726.53;5037762;28;45232;-66
2023/01/02 02:18:56;;;;;;;;;0.33;0.00;;;;;13.93;77.28;100730.13;5037480;28;46367;-70
2023/01/02 02:21:50;;;;;;;;;1.00;1.00;;;;;13.78;78.26;100707.97;5038462;28;45382;-67
2023/01/02 02:24:35;;;;;;;;;0.33;0.33;;;;;13.91;77.48;100738.25;5023333;28;45933;-67
2023/01/02 02:27:37;;;;;;;;;3.67;2.00;;;;;13.89;77.84;100734.84;5038833;28;45838;-66
2023/01/02 02:30:17;;;;;;;;;4.00;1.00;;;;;13.90;78.36;100744.56;5038297;28;46585;-66
2023/01/02 02:33:01;;;;;;;;;0.00;0.00;;;;;13.88;78.22;100749.16;5019995;28;45360;-66
2023/01/02 02:35:54;;;;;;;;;2.00;2.00;;;;;13.79;79.76;100745.28;5038774;28;45463;-66
2023/01/02 02:38:46;;;;;;;;;1.00;1.00;;;;;13.72;80.21;100745.81;5038411;28;45368;-66
2023/01/02 02:41:31;;;;;;;;;0.67;0.67;;;;;13.64;81.29;100743.63;5036719;28;45395;-67
2023/01/02 02:44:43;;;;;;;;;1.00;1.00;;;;;13.62;81.83;100752.72;5037533;28;45250;-64
2023/01/02 02:47:41;;;;;;;;;1.00;1.00;;;;;13.56;81.99;100748.66;4984261;28;45323;-65
2023/01/02 02:50:21;;;;;;;;;3.00;1.00;;;;;13.53;82.70;100744.34;5038886;28;45316;-65
2023/01/02 02:52:56;;;;;;;;;2.33;1.00;;;;;13.42;83.52;100733.53;5038272;28;46249;-68
2023/01/02 02:55:31;;;;;;;;;3.00;3.00;;;;;13.37;82.91;100732.94;5019957;28;45396;-66
2023/01/02 02:57:59;;;;;;;;;2.00;1.00;;;;;13.40;83.70;100740.75;5038037;28;45444;-67
2023/01/02 03:00:25;;;;;;;;;0.00;0.00;;;;;13.36;83.41;100733.91;5038197;28;45602;-68
2023/01/02 03:02:50;;;;;;;;;3.67;2.00;;;;;13.36;83.33;100739.25;5020217;28;45616;-71
2023/01/02 03:05:24;;;;;;;;;1.33;0.00;;;;;13.37;84.16;100740.09;5018068;28;45403;-70
2023/01/02 03:08:31;;;;;;;;;1.00;1.00;;;;;13.34;84.06;100751.00;5017799;28;45257;-68
2023/01/02 03:11:01;;;;;;;;;2.00;1.00;;;;;13.27;83.69;100748.72;5017906;28;45404;-66
2023/01/02 03:13:40;;;;;;;;;1.00;1.00;;;;;13.30;83.76;100754.84;5017332;28;45473;-67
2023/01/02 03:16:19;;;;;;;;;1.00;1.00;;;;;13.28;83.47;100762.91;5017940;28;45346;-65
2023/01/02 03:18:53;;;;;;;;;1.00;0.00;;;;;13.23;83.53;100757.03;5017972;28;45438;-71
2023/01/02 03:21:40;;;;;;;;;0.00;0.00;;;;;13.17;83.05;100760.06;5017980;28;45282;-68
2023/01/02 03:24:10;;;;;;;;;0.00;0.00;;;;;13.16;82.44;100753.88;5017488;28;46294;-66
2023/01/02 03:26:38;;;;;;;;;0.00;0.00;;;;;13.12;81.37;100740.81;5017733;28;45406;-68
2023/01/02 03:29:11;;;;;;;;;1.00;0.00;;;;;13.09;80.43;100746.34;5018002;28;45395;-65
2023/01/02 03:31:40;;;;;;;;;0.00;0.00;;;;;13.06;80.53;100744.75;5017976;28;45491;-68
2023/01/02 03:34:20;;;;;;;;;0.00;0.00;;;;;12.99;80.96;100744.25;4999464;28;47109;-71
2023/01/02 03:36:52;;;;;;;;;0.00;0.00;;;;;13.02;80.49;100756.56;5017271;28;45220;-69
2023/01/02 03:39:22;;;;;;;;;1.00;0.00;;;;;12.98;82.54;100755.03;4999655;28;45305;-68
2023/01/02 03:41:59;;;;;;;;;0.00;0.00;;;;;12.97;79.84;100764.84;5000357;28;45697;-70
2023/01/02 03:44:33;;;;;;;;;0.00;0.00;;;;;12.98;79.81;100774.56;5017189;28;47313;-69
2023/01/02 03:47:13;;;;;;;;;0.00;0.00;;;;;12.93;79.00;100776.69;5017255;28;45389;-70
2023/01/02 03:49:44;;;;;;;;;0.00;0.00;;;;;12.93;80.15;100784.69;5017071;28;45231;-68
2023/01/02 03:52:09;;;;;;;;;0.00;0.00;;;;;12.92;79.28;100790.13;4998899;28;45619;-67
2023/01/02 03:54:36;;;;;;;;;0.00;0.00;;;;;12.86;80.04;100791.38;5017395;28;46298;-69
2023/01/02 03:57:30;;;;;;;;;1.00;0.00;;;;;12.88;80.45;100800.13;5017868;28;45342;-70
2023/01/02 04:00:05;;;;;;;;;0.00;0.00;;;;;12.89;79.74;100812.56;5017087;28;45443;-68
2023/01/02 04:02:37;;;;;;;;;0.00;0.00;;;;;12.88;80.02;100812.63;5017039;28;45327;-67
2023/01/02 04:05:14;;;;;;;;;0.00;0.00;;;;;12.81;79.98;100813.97;5017519;28;46244;-67
2023/01/02 04:07:52;;;;;;;;;0.00;0.00;;;;;12.84;80.20;100809.28;5016994;28;45483;-66
2023/01/02 04:10:19;;;;;;;;;0.00;0.00;;;;;12.86;80.49;100823.41;5016744;28;45323;-69
2023/01/02 04:12:49;;;;;;;;;0.00;0.00;;;;;12.81;80.47;100814.81;5011527;28;45635;-66
2023/01/02 04:15:18;;;;;;;;;0.00;0.00;;;;;12.81;81.08;100814.81;5016877;28;46549;-64
2023/01/02 04:17:55;;;;;;;;;0.00;0.00;;;;;12.75;80.91;100809.84;5016720;28;45409;-66
2023/01/02 04:20:29;;;;;;;;;0.00;0.00;;;;;12.73;80.57;100805.56;5016740;28;45223;-69
2023/01/02 04:23:03;;;;;;;;;0.00;0.00;;;;;12.70;80.21;100806.63;5016972;28;45337;-66
2023/01/02 04:25:37;;;;;;;;;0.00;0.00;;;;;12.67;80.48;100812.16;5015188;28;45375;-71
2023/01/02 04:28:13;;;;;;;;;0.33;0.00;;;;;12.65;79.95;100808.72;5016747;28;45450;-70
2023/01/02 04:30:43;;;;;;;;;0.00;0.00;;;;;12.66;80.83;100816.63;5016578;28;45336;-68
2023/01/02 04:33:11;;;;;;;;;1.00;0.00;;;;;12.57;80.78;100802.97;5016736;28;45594;-68
2023/01/02 04:35:36;;;;;;;;;0.00;0.00;;;;;12.61;81.40;100825.84;5016643;28;46614;-66
2023/01/02 04:38:09;;;;;;;;;0.00;0.00;;;;;12.60;80.89;100832.13;5016267;28;47597;-69
2023/01/02 04:40:38;;;;;;;;;0.67;0.00;;;;;12.61;80.62;100831.19;5017262;28;45550;-66
2023/01/02 04:43:12;;;;;;;;;0.00;0.00;;;;;12.54;81.15;100827.19;5017297;28;45451;-69
2023/01/02 04:45:37;;;;;;;;;0.00;0.00;;;;;12.59;81.34;100841.09;5016715;28;46379;-66
2023/01/02 04:48:03;;;;;;;;;0.00;0.00;;;;;12.56;81.31;100843.94;5015271;28;47156;-69
2023/01/02 04:50:29;;;;;;;;;0.00;0.00;;;;;12.58;81.67;100860.72;5016496;28;45575;-68
2023/01/02 04:52:54;;;;;;;;;0.00;0.00;;;;;12.54;81.70;100864.53;5016582;28;45637;-67
2023/01/02 04:55:19;;;;;;;;;0.00;0.00;;;;;12.54;82.32;100864.53;5016352;28;46324;-65
2023/01/02 04:57:45;;;;;;;;;0.00;0.00;;;;;12.53;82.93;100863.69;5014638;28;49624;-68
2023/01/02 05:00:10;;;;;;;;;0.00;0.00;;;;;12.49;83.36;100863.94;5016401;28;45744;-64
2023/01/02 05:02:37;;;;;;;;;0.00;0.00;;;;;12.47;83.77;100869.34;5016467;28;45498;-64
2023/01/02 05:05:04;;;;;;;;;1.00;0.00;;;;;12.47;83.52;100874.69;5015117;28;45296;-65
2023/01/02 05:07:32;;;;;;;;;0.00;0.00;;;;;12.42;83.73;100871.47;4997897;28;45479;-64
2023/01/02 05:09:57;;;;;;;;;0.00;0.00;;;;;12.40;84.74;100882.22;5015820;28;45350;-67
2023/01/02 05:12:23;;;;;;;;;1.00;0.00;;;;;12.42;84.10;100884.78;5016253;28;45555;-65
2023/01/02 05:14:48;;;;;;;;;0.00;0.00;;;;;12.33;85.13;100874.66;5015792;28;52269;-66
2023/01/02 05:17:13;;;;;;;;;0.67;0.00;;;;;12.35;84.65;100880.75;5015951;28;45399;-66
2023/01/02 05:19:39;;;;;;;;;1.00;0.00;;;;;12.39;84.36;100896.50;5016680;28;45488;-68
2023/01/02 05:24:48;;;;;;;;;0.00;0.00;;;;;12.36;85.00;100903.81;5015752;28;45395;-67
2023/01/02 05:27:13;;;;;;;;;0.67;0.00;;;;;12.31;84.48;100898.75;4997693;28;50412;-66
2023/01/02 05:29:38;;;;;;;;;0.00;0.00;;;;;12.31;84.18;100912.09;5016285;28;45431;-68
2023/01/02 05:32:04;;;;;;;;;0.00;0.00;;;;;12.31;84.91;100906.75;4998335;28;45400;-67
2023/01/02 05:34:29;;;;;;;;;0.00;0.00;;;;;12.29;84.46;100923.78;5015639;28;46058;-67
2023/01/02 05:36:55;;;;;;;;;0.00;0.00;;;;;12.22;85.59;100928.59;4998007;28;45612;-67
2023/01/02 05:39:20;;;;;;;;;0.00;0.00;;;;;12.21;85.58;100940.22;5015447;28;57535;-65
2023/01/02 05:41:45;;;;;;;;;1.33;0.00;;;;;12.21;85.30;100936.69;5016015;28;45575;-66
2023/01/02 05:44:11;;;;;;;;;0.00;0.00;;;;;12.21;85.24;100953.56;5015651;28;46359;-65
2023/01/02 05:46:37;;;;;;;;;0.00;0.00;;;;;12.21;85.52;100950.03;5016102;28;45325;-67
2023/01/02 05:49:07;;;;;;;;;0.00;0.00;;;;;12.18;85.78;100948.41;5015820;28;45363;-63
2023/01/02 05:51:33;;;;;;;;;0.00;0.00;;;;;12.23;85.12;100961.47;4997950;28;45523;-65
2023/01/02 05:53:59;;;;;;;;;0.00;0.00;;;;;12.23;85.69;100950.81;5015193;28;46130;-66
2023/01/02 05:56:26;;;;;;;;;0.00;0.00;;;;;12.20;85.88;100959.84;5015546;28;45341;-63
2023/01/02 05:58:52;;;;;;;;;0.00;0.00;;;;;12.18;85.40;100959.06;5015637;28;45393;-64
2023/01/02 06:01:23;;;;;;;;;0.00;0.00;;;;;12.16;86.42;100946.78;5015614;28;45451;-64
2023/01/02 06:03:54;;;;;;;;;0.00;0.00;;;;;12.17;85.37;100954.69;5015162;28;45439;-64
2023/01/02 06:06:22;;;;;;;;;0.00;0.00;;;;;12.14;85.92;100944.22;4997420;28;45500;-65
2023/01/02 06:08:47;;;;;;;;;0.00;0.00;;;;;12.19;85.37;100963.47;5015445;28;45504;-65
2023/01/02 06:11:14;;;;;;;;;0.00;0.00;;;;;12.21;85.61;100966.88;5018663;28;45527;-65
2023/01/02 06:13:39;;;;;;;;;0.00;0.00;;;;;12.21;85.96;100971.38;5035357;28;47241;-63
2023/01/02 06:16:06;;;;;;;;;0.00;0.00;;;;;12.20;86.65;100973.16;5036736;28;45278;-65
2023/01/02 06:18:34;;;;;;;;;0.00;0.00;;;;;12.17;86.39;100965.34;5038596;28;45419;-64
2023/01/02 06:21:01;;;;;;;;;0.00;0.00;;;;;12.19;87.03;100981.25;5038560;28;45506;-66
2023/01/02 06:23:27;;;;;;;;;0.00;0.00;;;;;12.12;87.19;100978.09;5038369;28;45439;-66
2023/01/02 06:25:52;;;;;;;;;0.00;0.00;;;;;12.01;86.58;100975.16;5038451;28;45326;-66
2023/01/02 06:28:18;;;;;;;;;0.00;0.00;;;;;12.16;86.53;100992.97;5038854;28;45276;-65
2023/01/02 06:30:43;;;;;;;;;0.00;0.00;;;;;12.17;85.82;100986.69;5039208;28;45571;-67
2023/01/02 06:33:09;;;;;;;;;0.00;0.00;;;;;12.17;86.51;100993.81;5038619;28;46496;-66
2023/01/02 06:35:34;;;;;;;;;0.00;0.00;;;;;12.16;85.99;101000.97;5020562;28;45395;-66
2023/01/02 06:38:00;;;;;;;;;0.00;0.00;;;;;12.10;86.75;100993.28;5020353;28;45416;-67
2023/01/02 06:40:25;;;;;;;;;0.00;0.00;;;;;12.13;86.47;101014.47;5038395;28;45596;-64
2023/01/02 06:42:50;;;;;;;;;0.00;0.00;;;;;12.10;85.94;101009.28;5038049;28;46254;-67
2023/01/02 06:45:16;;;;;;;;;0.00;0.00;;;;;12.09;86.16;101010.25;5038253;28;45375;-67
2023/01/02 06:47:41;;;;;;;;;0.00;0.00;;;;;12.06;86.69;101013.09;5020995;28;45345;-65
2023/01/02 06:50:07;;;;;;;;;0.00;0.00;;;;;12.07;86.67;101017.47;5039220;28;45290;-64
2023/01/02 06:52:33;;;;;;;;;0.00;0.00;;;;;12.00;86.67;101003.63;5004119;28;47534;-64
2023/01/02 06:54:58;;;;;;;;;0.00;0.00;;;;;11.98;86.54;100999.31;5038437;28;45442;-66
2023/01/02 06:57:24;;;;;;;;;1.00;0.00;;;;;11.99;86.62;101006.38;5038554;28;45391;-64
2023/01/02 06:59:49;;;;;;;;;0.00;0.00;;;;;11.95;86.21;100999.47;5018933;28;58382;-67
2023/01/02 07:02:15;;;;;;;;;0.00;0.00;;;;;11.93;85.82;101002.22;5025639;28;45396;-67
2023/01/02 07:04:40;;;;;;;;;0.00;0.00;;;;;12.03;86.56;101002.59;5000378;28;45424;-67
2023/01/02 07:07:07;;;;;;;;;0.00;0.00;;;;;12.03;86.19;101007.94;5018136;28;45450;-66
2023/01/02 07:09:33;;;;;;;;;0.00;0.00;;;;;11.99;85.44;101014.38;5018145;28;45276;-64
2023/01/02 07:11:58;;;;;;;;;0.00;0.00;;;;;11.93;85.41;101020.03;5017442;28;46167;-65
2023/01/02 07:14:24;;;;;;;;;0.00;0.00;;;;;11.82;85.44;101007.28;5017672;28;45392;-65
2023/01/02 07:16:49;;;;;;;;;0.00;0.00;;;;;11.95;85.44;101026.13;5018002;28;45340;-66
2023/01/02 07:19:15;;;;;;;;;1.00;1.00;;;;;11.93;85.21;101025.38;5018264;28;45642;-67
2023/01/02 07:21:40;;;;;;;;;0.67;0.00;;;;;11.96;85.70;101019.84;5017736;28;46200;-67
2023/01/02 07:24:10;;;;;;;;;0.00;0.00;;;;;11.99;85.83;101033.91;4999733;28;45384;-64
2023/01/02 07:26:35;;;;;;;;;0.00;0.00;;;;;12.01;85.49;101031.16;5017395;28;45468;-67
2023/01/02 07:29:01;;;;;;;;;0.00;0.00;;;;;12.02;85.19;101039.06;5017321;28;45424;-68
2023/01/02 07:31:28;;;;;;;;;0.00;0.00;;;;;11.99;84.61;101031.25;5017497;28;46481;-69
2023/01/02 07:33:53;;;;;;;;;0.00;0.00;;;;;11.97;83.60;101029.56;5016416;28;45413;-67
2023/01/02 07:36:21;;;;;;;;;0.00;0.00;;;;;11.93;84.10;101028.03;5017398;28;45421;-66
2023/01/02 07:38:54;;;;;;;;;0.00;0.00;;;;;11.97;85.01;101034.91;5017666;28;45227;-70
2023/01/02 07:41:22;;;;;;;;;0.00;0.00;;;;;11.89;84.39;101018.50;4999512;28;47998;-72
2023/01/02 07:43:49;;;;;;;;;0.33;0.00;;;;;11.93;84.13;101038.69;5017495;28;45658;-66
2023/01/02 07:46:17;;;;;;;;;0.00;0.00;;;;;11.91;84.71;101040.59;5017582;28;45418;-71
2023/01/02 07:48:43;;;;;;;;;0.33;0.33;;;;;11.95;84.38;101052.78;5017633;28;45302;-72
2023/01/02 07:51:09;;;;;;;;;1.33;0.00;;;;;11.92;84.98;101050.31;5017018;28;47354;-68
2023/01/02 07:53:35;;;;;;;;;0.00;0.00;;;;;11.91;83.64;101060.09;5017384;28;45273;-66
2023/01/02 07:56:01;;;;;;;;;0.00;0.00;;;;;11.74;83.26;101052.13;5017492;28;45233;-70
2023/01/02 07:58:27;;;;;;;;;0.00;0.00;;;;;11.88;83.10;101083.41;5017534;28;45231;-69
2023/01/02 08:00:53;;;;;;;;;0.00;0.00;;;;;11.82;83.31;101080.09;5016784;28;45407;-70
2023/01/02 08:03:19;;;;;;;;;0.00;0.00;;;;;11.89;83.01;101095.78;5016939;28;45379;-72
2023/01/02 08:05:44;;;;;;;;;0.67;0.00;;;;;11.74;83.36;101074.31;5017540;28;45278;-69
2023/01/02 08:08:10;;;;;;;;;0.00;0.00;;;;;11.88;83.41;101102.06;5017282;28;45351;-68
2023/01/02 08:10:36;;;;;;;;;0.00;0.00;;;;;11.80;83.23;101108.63;4998964;28;45531;-70
2023/01/02 08:13:03;;;;;;;;;0.00;0.00;;;;;11.81;82.30;101123.69;5013715;28;45465;-67
2023/01/02 08:15:29;;;;;;;;;0.67;0.00;;;;;11.84;83.06;101129.78;5017222;28;45485;-68
2023/01/02 08:17:56;;;;;;;;;0.00;0.00;;;;;11.87;83.03;101133.19;5016837;28;45230;-69
2023/01/02 08:20:22;;;;;;;;;1.67;0.00;;;;;11.87;82.19;101124.31;5016586;28;45545;-69
2023/01/02 08:22:48;;;;;;;;;1.00;0.00;;;;;11.84;81.98;101119.13;5016811;28;45347;-70
2023/01/02 08:25:13;;;;;;;;;1.00;0.00;;;;;11.84;81.56;101129.78;5016687;28;45529;-71
2023/01/02 08:27:39;;;;;;;;;1.00;0.00;;;;;11.87;82.14;101140.31;5016754;28;45598;-71
2023/01/02 08:30:05;;;;;;;;;0.00;0.00;;;;;11.89;82.08;101141.94;5016391;28;45723;-72
2023/01/02 08:32:35;;;;;;;;;0.00;0.00;;;;;11.85;81.67;101136.84;5015042;28;45427;-72
2023/01/02 08:35:00;;;;;;;;;0.00;0.00;;;;;11.89;82.24;101149.09;5014999;28;45583;-69
2023/01/02 08:37:25;;;;;;;;;0.33;0.00;;;;;11.88;82.66;101139.38;5016737;28;45243;-68
2023/01/02 08:39:51;;;;;;;;;0.00;0.00;;;;;11.77;81.69;101122.09;5014949;28;47973;-69
2023/01/02 08:42:16;;;;;;;;;0.00;0.00;;;;;11.90;81.79;101145.47;5016336;28;55986;-69
2023/01/02 08:44:42;;;;;;;;;0.00;0.00;;;;;11.88;80.36;101166.03;5016509;28;45260;-69
2023/01/02 08:47:07;;;;;;;;;0.00;0.00;;;;;11.78;81.10;101153.13;5016372;28;45572;-75
2023/01/02 08:49:33;;;;;;;;;0.00;0.00;;;;;11.85;81.25;101166.16;5016929;28;45232;-66
2023/01/02 08:51:58;;;;;;;;;0.00;0.00;;;;;11.84;80.80;101169.75;5016727;28;45340;-68
2023/01/02 08:54:23;;;;;;;;;0.00;0.00;;;;;11.84;81.32;101194.63;5017326;28;45229;-68
2023/01/02 08:56:49;;;;;;;;;0.00;0.00;;;;;11.73;80.95;101189.84;5016620;28;45665;-68
2023/01/02 08:59:14;;;;;;;;;0.00;0.00;;;;;11.87;81.11;101225.59;5016088;28;45605;-66
2023/01/02 09:01:40;;;;;;;;;0.00;0.00;;;;;11.85;81.23;101222.13;5007575;28;45459;-68
2023/01/02 09:04:06;;;;;;;;;0.00;0.00;;;;;11.86;81.07;101234.53;4995394;28;45364;-71
2023/01/02 09:06:33;;;;;;;;;0.67;0.00;;;;;11.82;81.13;101232.00;4996472;28;45629;-68
2023/01/02 09:08:59;;;;;;;;;0.00;0.00;;;;;11.91;80.71;101253.81;4996502;28;45531;-68
2023/01/02 09:11:27;;;;;;;;;1.00;0.00;;;;;11.82;80.87;101234.66;5000833;28;45439;-66
2023/01/02 09:13:53;;;;;;;;;0.00;0.00;;;;;11.93;81.28;101257.25;4998298;28;45358;-67
2023/01/02 09:16:18;;;;;;;;;0.00;0.00;;;;;11.90;81.09;101268.09;5015412;28;45713;-75
2023/01/02 09:18:43;;;;;;;;;1.00;0.00;;;;;11.74;81.19;101233.31;5015797;28;45802;-64
2023/01/02 09:21:09;;;;;;;;;2.00;1.00;;;;;11.81;81.04;101250.75;4997994;28;45186;-69
2023/01/02 09:23:35;;;;;;;;;0.00;0.00;;;;;11.82;81.27;101237.34;5016189;28;45296;-70
2023/01/02 09:26:04;;;;;;;;;0.00;0.00;;;;;11.73;81.39;101218.28;5015803;28;45418;-69
2023/01/02 09:28:31;;;;;;;;;0.00;0.00;;;;;11.83;80.84;101240.88;5015662;28;46608;-70
2023/01/02 09:30:57;;;;;;;;;0.00;0.00;;;;;11.72;81.41;101244.06;5015975;28;45256;-63
2023/01/02 09:33:22;;;;;;;;;0.00;0.00;;;;;11.80;81.17;101257.88;5016230;28;45318;-69
2023/01/02 09:35:48;;;;;;;;;0.00;0.00;;;;;11.80;81.33;101283.66;5016140;28;45175;-66
2023/01/02 09:38:13;;;;;;;;;2.00;0.67;;;;;11.75;81.51;101291.88;5016096;28;45447;-68
2023/01/02 09:40:48;;;;;;;;;0.33;0.00;;;;;11.79;81.55;101296.13;5015794;28;45277;-65
2023/01/02 09:43:17;;;;;;;;;0.00;0.00;;;;;11.75;81.63;101288.34;5016056;28;45222;-70
2023/01/02 09:45:44;;;;;;;;;0.00;0.00;;;;;11.77;81.63;101287.31;5015808;28;45518;-66
2023/01/02 09:48:20;;;;;;;;;0.00;0.00;;;;;11.81;81.36;101288.91;5015489;28;46377;-66
2023/01/02 09:50:48;;;;;;;;;0.33;0.33;;;;;11.86;81.41;101294.03;5016454;28;45153;-69
2023/01/02 09:53:15;;;;;;;;;0.00;0.00;;;;;11.85;81.01;101305.63;5019283;28;45253;-68
2023/01/02 09:55:54;;;;;;;;;0.00;0.00;;;;;11.84;81.05;101321.69;5019137;28;45404;-66
2023/01/02 09:58:33;;;;;;;;;0.00;0.00;;;;;11.85;80.85;101329.63;5018772;28;46024;-69
2023/01/02 10:00:59;;;;;;;;;0.00;0.00;;;;;11.75;80.79;101320.31;5018633;28;45470;-65
2023/01/02 10:03:58;;;;;;;;;0.00;0.00;;;;;11.86;80.96;101352.66;5019576;28;45743;-68
2023/01/02 10:06:33;;;;;;;;;0.33;0.33;;;;;11.84;81.26;101353.66;5019835;28;45555;-71
2023/01/02 10:09:22;;;;;;;;;0.00;0.00;;;;;11.83;81.11;101347.47;4985824;28;45377;-67
2023/01/02 10:12:03;;;;;;;;;0.00;0.00;;;;;11.88;81.47;101349.94;5026673;28;45335;-68
2023/01/02 10:14:34;;;;;;;;;0.00;0.00;;;;;11.89;81.51;101352.50;5027545;28;45257;-69
2023/01/02 10:17:02;;;;;;;;;1.00;1.00;;;;;11.80;81.09;101337.81;5001037;28;45533;-69
2023/01/02 10:19:49;;;;;;;;;1.33;0.00;;;;;11.77;81.29;101331.75;5037471;28;46516;-68
2023/01/02 10:22:21;;;;;;;;;0.00;0.00;;;;;11.89;81.16;101333.00;5013733;28;45364;-66
2023/01/02 10:25:05;;;;;;;;;0.00;0.00;;;;;11.91;81.62;101323.97;5018688;28;45454;-67
2023/01/02 10:27:40;;;;;;;;;0.00;0.00;;;;;11.88;81.20;101318.81;5001144;28;45637;-68
2023/01/02 10:30:19;;;;;;;;;1.00;1.00;;;;;11.97;81.29;101322.78;5019783;28;45380;-67
2023/01/02 10:33:11;;;;;;;;;0.00;0.00;;;;;11.95;81.65;101322.00;5038690;28;45462;-66
2023/01/02 10:35:42;;;;;;;;;1.00;1.00;;;;;11.96;80.68;101315.75;5038697;28;45328;-66
2023/01/02 10:38:17;;;;;;;;;6.67;0.67;;;;;12.03;80.69;101330.50;5038824;28;45743;-65
2023/01/02 10:40:46;;;;;;;;;0.00;0.00;;;;;11.98;80.44;101336.06;5037459;28;45469;-65
2023/01/02 10:43:13;;;;;;;;;1.00;1.00;;;;;12.06;80.58;101344.53;5038289;28;45471;-65
2023/01/02 10:45:40;;;;;;;;;0.00;0.00;;;;;12.04;80.68;101334.88;5038365;28;45364;-65
2023/01/02 10:48:05;;;;;;;;;1.00;1.00;;;;;12.05;80.19;101332.13;5029526;28;45525;-68
2023/01/02 10:50:40;;;;;;;;;2.00;0.33;;;;;12.09;80.02;101354.16;5018472;28;45503;-67
2023/01/02 10:53:28;;;;;;;;;0.00;0.00;;;;;12.07;80.27;101367.59;5000417;28;45270;-66
2023/01/02 10:55:53;;;;;;;;;1.00;1.00;;;;;12.13;80.13;101379.75;5018612;28;45408;-66
2023/01/02 10:58:20;;;;;;;;;0.00;0.00;;;;;12.17;79.93;101383.13;5000719;28;45424;-66
2023/01/02 11:00:49;;;;;;;;;1.00;1.00;;;;;12.09;80.03;101372.84;5018372;28;45432;-68
2023/01/02 11:03:16;;;;;;;;;1.00;1.00;;;;;11.98;79.93;101364.50;5017309;28;45339;-69
2023/01/02 11:05:48;;;;;;;;;0.33;0.33;;;;;12.14;79.77;101380.63;5018973;28;45238;-65
2023/01/02 11:08:16;;;;;;;;;0.00;0.00;;;;;12.19;79.38;101375.91;5001593;28;45432;-66
2023/01/02 11:10:42;;;;;;;;;0.67;0.67;;;;;12.13;78.70;101371.75;5018189;28;47388;-69
2023/01/02 11:13:13;;;;;;;;;4.33;0.33;;;;;12.16;79.33;101382.28;5017741;28;45188;-71
2023/01/02 11:15:48;;;;;;;;;0.00;0.00;;;;;12.14;79.08;101376.16;5018128;28;45483;-69
2023/01/02 11:18:23;;;;;;;;;1.67;1.00;;;;;12.21;78.55;101388.22;5017933;28;45332;-66
2023/01/02 11:20:55;;;;;;;;;1.00;1.00;;;;;12.19;78.81;101392.78;5017712;28;45490;-69
2023/01/02 11:23:24;;;;;;;;;1.00;1.00;;;;;12.16;78.07;101395.59;5017216;28;45521;-70
2023/01/02 11:25:51;;;;;;;;;1.00;1.00;;;;;12.18;78.28;101391.06;5000214;28;45422;-67
2023/01/02 11:28:24;;;;;;;;;1.00;1.00;;;;;12.33;78.13;101405.41;5017979;28;45218;-67
2023/01/02 11:31:10;;;;;;;;;1.00;1.00;;;;;12.38;78.07;101390.91;4999510;28;45414;-67
2023/01/02 11:33:37;;;;;;;;;0.00;0.00;;;;;12.48;77.00;101388.63;5017756;28;45439;-67
2023/01/02 11:36:02;;;;;;;;;0.67;0.67;;;;;12.51;76.09;101387.63;5017768;28;45261;-65
2023/01/02 11:38:42;;;;;;;;;1.00;1.00;;;;;12.43;76.34;101373.81;5018273;28;45762;-66